createdAt,value
2023-02-27T00:01:41.315Z,94433.41
2023-02-27T00:04:07.792Z,94433.97
2023-02-27T00:06:34.228Z,94426.13
2023-02-27T00:09:00.630Z,94435.16
2023-02-27T00:11:27.758Z,94434.38
2023-02-27T00:13:54.445Z,94433.78
2023-02-27T00:16:20.944Z,94431.44
2023-02-27T00:18:47.372Z,94428.31
2023-02-27T00:21:13.793Z,94413.66
2023-02-27T00:23:40.192Z,94425.34
2023-02-27T00:26:06.825Z,94438.69
2023-02-27T00:28:33.266Z,94434.38
2023-02-27T00:30:59.786Z,94437.91
2023-02-27T00:33:26.783Z,94429.31
2023-02-27T00:36:00.614Z,94441.09
2023-02-27T00:38:27.520Z,94434.25
2023-02-27T00:40:55.129Z,94428.78
2023-02-27T00:43:21.758Z,94432.53
2023-02-27T00:45:49.686Z,94440.16
2023-02-27T00:48:16.302Z,94442.94
2023-02-27T00:50:43.292Z,94441.75
2023-02-27T00:53:10.041Z,94433.13
2023-02-27T00:55:36.556Z,94435.47
2023-02-27T00:58:03.242Z,94442.16
2023-02-27T01:00:31.031Z,94439.81
2023-02-27T01:02:57.513Z,94442.56
2023-02-27T01:05:24.080Z,94434.72
2023-02-27T01:07:51.052Z,94423.75
2023-02-27T01:10:17.745Z,94439.22
2023-02-27T01:12:44.318Z,94437.47
2023-02-27T01:15:12.183Z,94430.59
2023-02-27T01:17:38.645Z,94434.72
2023-02-27T01:20:06.374Z,94441.78
2023-02-27T01:22:33.349Z,94440.22
2023-02-27T01:25:00.254Z,94440.22
2023-02-27T01:27:26.906Z,94434.53
2023-02-27T01:29:53.432Z,94445.72
2023-02-27T01:32:19.943Z,94444.72
2023-02-27T01:34:46.453Z,94440.06
2023-02-27T01:37:13.020Z,94447.28
2023-02-27T01:39:42.615Z,94442.97
2023-02-27T01:42:26.713Z,94440.22
2023-02-27T01:45:20.318Z,94440.41
2023-02-27T01:47:54.208Z,94443.19
2023-02-27T01:50:20.823Z,94425.72
2023-02-27T01:52:56.421Z,94443.97
2023-02-27T01:55:25.805Z,94438.06
2023-02-27T01:57:53.136Z,94433.16
2023-02-27T02:00:20.066Z,94429.66
2023-02-27T02:03:19.389Z,94433.94
2023-02-27T02:05:49.773Z,94427.31
2023-02-27T02:08:22.971Z,94425.16
2023-02-27T02:10:53.417Z,94431.63
2023-02-27T02:13:21.732Z,94430.09
2023-02-27T02:15:56.699Z,94426.94
2023-02-27T02:18:42.205Z,94425.78
2023-02-27T02:21:42.873Z,94429.88
2023-02-27T02:24:15.423Z,94432.63
2023-02-27T02:26:57.774Z,94440.28
2023-02-27T02:29:36.178Z,94436.16
2023-02-27T02:32:36.487Z,94434.63
2023-02-27T02:35:32.398Z,94438.53
2023-02-27T02:38:16.858Z,94427.38
2023-02-27T02:40:58.476Z,94440.09
2023-02-27T02:43:40.777Z,94430.50
2023-02-27T02:46:20.138Z,94433.66
2023-02-27T02:49:36.632Z,94440.28
2023-02-27T02:52:12.777Z,94442.25
2023-02-27T02:54:57.781Z,94437.56
2023-02-27T02:57:33.618Z,94436.00
2023-02-27T03:00:11.722Z,94439.94
2023-02-27T03:02:45.881Z,94447.41
2023-02-27T03:05:20.680Z,94440.34
2023-02-27T03:07:59.373Z,94445.03
2023-02-27T03:10:49.613Z,94442.28
2023-02-27T03:13:39.136Z,94446.41
2023-02-27T03:16:17.598Z,94442.88
2023-02-27T03:18:50.460Z,94443.44
2023-02-27T03:21:25.847Z,94445.03
2023-02-27T03:23:56.793Z,94446.59
2023-02-27T03:26:32.850Z,94446.41
2023-02-27T03:29:03.930Z,94446.59
2023-02-27T03:32:23.161Z,94443.06
2023-02-27T03:34:50.153Z,94432.13
2023-02-27T03:37:53.213Z,94447.97
2023-02-27T03:40:34.421Z,94447.19
2023-02-27T03:43:14.329Z,94445.63
2023-02-27T03:45:56.366Z,94445.81
2023-02-27T03:48:22.921Z,94446.03
2023-02-27T03:50:49.553Z,94440.34
2023-02-27T03:53:31.325Z,94448.19
2023-02-27T03:56:00.112Z,94433.50
2023-02-27T03:58:26.848Z,94438.41
2023-02-27T04:00:53.423Z,94450.16
2023-02-27T04:03:21.070Z,94448.59
2023-02-27T04:05:47.910Z,94452.88
2023-02-27T04:08:52.368Z,94444.66
2023-02-27T04:11:45.359Z,94450.53
2023-02-27T04:14:35.237Z,94457.41
2023-02-27T04:17:34.073Z,94459.34
2023-02-27T04:20:10.482Z,94462.28
2023-02-27T04:22:58.349Z,94465.63
2023-02-27T04:26:08.010Z,94462.28
2023-02-27T04:28:53.111Z,94462.09
2023-02-27T04:31:53.668Z,94461.91
2023-02-27T04:34:25.929Z,94460.72
2023-02-27T04:37:01.327Z,94466.63
2023-02-27T04:39:37.657Z,94463.50
2023-02-27T04:42:10.032Z,94475.03
2023-02-27T04:44:39.538Z,94467.41
2023-02-27T04:47:08.970Z,94473.50
2023-02-27T04:49:40.468Z,94470.94
2023-02-27T04:52:14.036Z,94470.94
2023-02-27T04:54:47.367Z,94474.06
2023-02-27T04:57:19.602Z,94470.56
2023-02-27T04:59:50.663Z,94472.09
2023-02-27T05:02:29.119Z,94470.56
2023-02-27T05:04:59.633Z,94469.94
2023-02-27T05:07:37.244Z,94466.44
2023-02-27T05:10:14.407Z,94475.25
2023-02-27T05:12:48.692Z,94472.31
2023-02-27T05:15:40.617Z,94476.78
2023-02-27T05:18:10.122Z,94474.47
2023-02-27T05:20:53.086Z,94474.47
2023-02-27T05:23:28.660Z,94482.09
2023-02-27T05:26:01.513Z,94474.47
2023-02-27T05:28:36.336Z,94481.13
2023-02-27T05:31:15.303Z,94474.66
2023-02-27T05:33:49.316Z,94475.63
2023-02-27T05:36:24.833Z,94486.63
2023-02-27T05:38:59.811Z,94485.03
2023-02-27T05:41:31.840Z,94483.69
2023-02-27T05:44:22.356Z,94480.75
2023-02-27T05:47:01.069Z,94479.34
2023-02-27T05:49:35.103Z,94476.78
2023-02-27T05:52:05.334Z,94474.06
2023-02-27T05:54:50.374Z,94475.66
2023-02-27T05:57:23.882Z,94481.50
2023-02-27T05:59:59.960Z,94478.38
2023-02-27T06:02:26.781Z,94484.66
2023-02-27T06:04:54.340Z,94476.03
2023-02-27T06:07:20.899Z,94484.03
2023-02-27T06:09:47.957Z,94477.22
2023-02-27T06:12:14.365Z,94484.25
2023-02-27T06:14:40.801Z,94479.16
2023-02-27T06:17:07.371Z,94491.69
2023-02-27T06:19:33.855Z,94488.97
2023-02-27T06:22:00.297Z,94491.69
2023-02-27T06:24:26.787Z,94495.22
2023-02-27T06:26:53.453Z,94490.91
2023-02-27T06:29:19.842Z,94492.88
2023-02-27T06:31:46.380Z,94498.75
2023-02-27T06:34:12.796Z,94501.47
2023-02-27T06:36:39.361Z,94501.88
2023-02-27T06:39:06.674Z,94498.38
2023-02-27T06:41:33.182Z,94505.56
2023-02-27T06:43:59.664Z,94500.69
2023-02-27T06:46:26.723Z,94510.09
2023-02-27T06:48:53.380Z,94506.56
2023-02-27T06:51:19.842Z,94512.44
2023-02-27T06:53:46.353Z,94508.13
2023-02-27T06:56:12.785Z,94517.91
2023-02-27T06:58:39.190Z,94507.56
2023-02-27T07:01:05.601Z,94513.44
2023-02-27T07:03:32.131Z,94517.91
2023-02-27T07:05:59.038Z,94519.13
2023-02-27T07:08:25.519Z,94516.19
2023-02-27T07:10:51.927Z,94518.13
2023-02-27T07:13:19.710Z,94511.66
2023-02-27T07:15:46.582Z,94516.38
2023-02-27T07:18:13.141Z,94517.50
2023-02-27T07:20:40.220Z,94518.50
2023-02-27T07:23:06.729Z,94522.97
2023-02-27T07:25:33.169Z,94528.47
2023-02-27T07:27:59.578Z,94525.72
2023-02-27T07:30:26.451Z,94528.44
2023-02-27T07:32:52.890Z,94531.19
2023-02-27T07:35:19.491Z,94537.06
2023-02-27T07:37:47.256Z,94537.81
2023-02-27T07:40:14.785Z,94547.22
2023-02-27T07:42:41.337Z,94532.28
2023-02-27T07:45:08.800Z,94543.63
2023-02-27T07:47:35.557Z,94530.50
2023-02-27T07:50:01.986Z,94542.03
2023-02-27T07:55:00.035Z,94549.63
2023-02-27T07:57:26.460Z,94541.56
2023-02-27T07:59:52.825Z,94546.81
2023-02-27T08:02:19.326Z,94543.66
2023-02-27T08:04:45.808Z,94546.59
2023-02-27T08:07:12.283Z,94542.00
2023-02-27T08:09:38.700Z,94534.69
2023-02-27T08:12:05.225Z,94544.44
2023-02-27T08:14:31.616Z,94548.09
2023-02-27T08:16:58.017Z,94550.19
2023-02-27T08:19:24.390Z,94535.97
2023-02-27T08:21:50.828Z,94545.75
2023-02-27T08:24:17.697Z,94548.38
2023-02-27T08:26:44.460Z,94546.72
2023-02-27T08:29:10.857Z,94546.59
2023-02-27T08:31:37.348Z,94538.66
2023-02-27T08:34:10.405Z,94543.66
2023-02-27T08:36:37.241Z,94541.94
2023-02-27T08:39:04.260Z,94543.78
2023-02-27T08:41:30.656Z,94539.72
2023-02-27T08:43:57.086Z,94551.44
2023-02-27T08:46:23.525Z,94543.06
2023-02-27T08:48:49.967Z,94548.47
2023-02-27T08:51:16.522Z,94541.91
2023-02-27T08:53:43.048Z,94544.38
2023-02-27T08:56:09.716Z,94542.75
2023-02-27T08:58:36.246Z,94558.38
2023-02-27T09:01:03.200Z,94553.94
2023-02-27T09:03:29.715Z,94562.91
2023-02-27T09:05:56.320Z,94556.69
2023-02-27T09:08:23.800Z,94556.59
2023-02-27T09:10:50.347Z,94562.09
2023-02-27T09:13:17.076Z,94559.63
2023-02-27T09:15:43.505Z,94564.78
2023-02-27T09:18:09.973Z,94569.16
2023-02-27T09:20:36.384Z,94562.25
2023-02-27T09:23:03.808Z,94563.16
2023-02-27T09:25:30.240Z,94561.03
2023-02-27T09:27:56.677Z,94577.31
2023-02-27T09:30:23.301Z,94576.00
2023-02-27T09:32:50.482Z,94570.41
2023-02-27T09:35:17.599Z,94582.22
2023-02-27T09:37:44.192Z,94577.31
2023-02-27T09:40:20.370Z,94577.53
2023-02-27T09:42:48.527Z,94567.88
2023-02-27T09:45:26.374Z,94575.22
2023-02-27T09:47:56.558Z,94583.28
2023-02-27T09:50:47.970Z,94578.75
2023-02-27T09:53:23.563Z,94581.03
2023-02-27T09:55:50.248Z,94575.13
2023-02-27T09:58:55.049Z,94584.91
2023-02-27T10:01:23.418Z,94579.28
2023-02-27T10:04:18.651Z,94575.63
2023-02-27T10:06:53.118Z,94585.91
2023-02-27T10:09:38.449Z,94578.56
2023-02-27T10:12:23.858Z,94584.66
2023-02-27T10:14:59.403Z,94576.81
2023-02-27T10:17:30.797Z,94591.91
2023-02-27T10:19:58.355Z,94603.19
2023-02-27T10:22:30.222Z,94604.78
2023-02-27T10:25:03.006Z,94591.06
2023-02-27T10:27:31.230Z,94595.03
2023-02-27T10:30:23.581Z,94598.34
2023-02-27T10:33:33.920Z,94611.81
2023-02-27T10:36:02.810Z,94609.78
2023-02-27T10:38:34.733Z,94610.41
2023-02-27T10:41:03.207Z,94605.13
2023-02-27T10:43:29.985Z,94603.38
2023-02-27T10:46:03.105Z,94618.75
2023-02-27T10:48:32.024Z,94628.38
2023-02-27T10:51:26.337Z,94635.41
2023-02-27T10:54:18.398Z,94632.41
2023-02-27T10:56:47.714Z,94633.19
2023-02-27T10:59:23.954Z,94637.00
2023-02-27T11:01:58.324Z,94636.88
2023-02-27T11:04:39.862Z,94631.31
2023-02-27T11:07:09.213Z,94632.84
2023-02-27T11:09:37.105Z,94623.84
2023-02-27T11:12:31.695Z,94629.59
2023-02-27T11:15:01.234Z,94617.03
2023-02-27T11:17:34.006Z,94622.97
2023-02-27T11:20:02.563Z,94620.31
2023-02-27T11:22:31.058Z,94618.53
2023-02-27T11:25:21.349Z,94616.34
2023-02-27T11:27:48.461Z,94621.91
2023-02-27T11:30:27.953Z,94612.44
2023-02-27T11:32:59.719Z,94614.38
2023-02-27T11:35:30.245Z,94615.47
2023-02-27T11:38:16.598Z,94605.50
2023-02-27T11:40:51.068Z,94603.53
2023-02-27T11:43:21.602Z,94608.88
2023-02-27T11:46:04.168Z,94609.25
2023-02-27T11:48:46.256Z,94613.81
2023-02-27T11:51:30.865Z,94601.38
2023-02-27T11:54:20.736Z,94601.94
2023-02-27T11:56:59.979Z,94592.00
2023-02-27T11:59:38.674Z,94596.38
2023-02-27T12:02:15.742Z,94599.94
2023-02-27T12:04:55.362Z,94597.84
2023-02-27T12:07:28.271Z,94598.69
2023-02-27T12:10:06.488Z,94595.84
2023-02-27T12:12:44.849Z,94595.91
2023-02-27T12:15:52.799Z,94600.16
2023-02-27T12:18:35.638Z,94594.44
2023-02-27T12:21:15.988Z,94599.38
2023-02-27T12:23:57.452Z,94591.41
2023-02-27T12:26:31.742Z,94603.34
2023-02-27T12:29:04.725Z,94606.94
2023-02-27T12:31:36.949Z,94601.66
2023-02-27T12:34:25.868Z,94600.88
2023-02-27T12:36:53.752Z,94602.19
2023-02-27T12:39:23.641Z,94609.25
2023-02-27T12:42:07.464Z,94601.66
2023-02-27T12:44:49.455Z,94611.97
2023-02-27T12:47:30.481Z,94598.41
2023-02-27T12:50:24.433Z,94604.34
2023-02-27T12:53:27.988Z,94607.81
2023-02-27T12:56:06.121Z,94601.44
2023-02-27T12:59:16.095Z,94603.84
2023-02-27T13:01:56.220Z,94595.31
2023-02-27T13:04:42.246Z,94598.75
2023-02-27T13:07:18.033Z,94603.81
2023-02-27T13:09:50.390Z,94606.38
2023-02-27T13:12:41.421Z,94598.63
2023-02-27T13:15:18.125Z,94599.56
2023-02-27T13:17:49.491Z,94598.16
2023-02-27T13:20:18.845Z,94598.97
2023-02-27T13:23:33.461Z,94594.91
2023-02-27T13:26:05.464Z,94583.09
2023-02-27T13:28:32.418Z,94570.59
2023-02-27T13:31:19.552Z,94571.19
2023-02-27T13:33:55.446Z,94571.31
2023-02-27T13:36:30.165Z,94577.13
2023-02-27T13:38:56.871Z,94581.09
2023-02-27T13:41:23.243Z,94583.00
2023-02-27T13:43:57.870Z,94575.22
2023-02-27T13:46:28.489Z,94575.97
2023-02-27T13:49:20.039Z,94576.06
2023-02-27T13:51:59.299Z,94576.56
2023-02-27T13:54:30.441Z,94572.53
2023-02-27T13:56:59.486Z,94575.91
2023-02-27T13:59:30.363Z,94577.66
2023-02-27T14:02:03.636Z,94575.31
2023-02-27T14:04:36.809Z,94581.25
2023-02-27T14:07:10.865Z,94579.59
2023-02-27T14:09:44.763Z,94587.09
2023-02-27T14:12:44.181Z,94561.81
2023-02-27T14:15:23.706Z,94585.44
2023-02-27T14:17:59.625Z,94594.59
2023-02-27T14:20:32.576Z,94590.88
2023-02-27T14:23:17.487Z,94590.28
2023-02-27T14:25:53.093Z,94594.34
2023-02-27T14:28:26.039Z,94596.94
2023-02-27T14:30:58.116Z,94601.97
2023-02-27T14:33:39.726Z,94606.53
2023-02-27T14:36:19.061Z,94595.66
2023-02-27T14:38:46.341Z,94597.00
2023-02-27T14:41:34.329Z,94595.25
2023-02-27T14:44:01.124Z,94596.41
2023-02-27T14:46:40.038Z,94600.66
2023-02-27T14:49:31.438Z,94602.59
2023-02-27T14:52:10.782Z,94612.09
2023-02-27T14:54:37.176Z,94616.25
2023-02-27T14:57:05.769Z,94614.13
2023-02-27T14:59:44.002Z,94606.56
2023-02-27T15:02:27.528Z,94619.28
2023-02-27T15:05:13.618Z,94622.75
2023-02-27T15:07:40.490Z,94623.28
2023-02-27T15:10:09.381Z,94627.53
2023-02-27T15:12:39.897Z,94625.63
2023-02-27T15:15:08.989Z,94624.06
2023-02-27T15:17:41.433Z,94624.63
2023-02-27T15:20:31.520Z,94628.97
2023-02-27T15:23:02.784Z,94621.03
2023-02-27T15:25:38.033Z,94631.50
2023-02-27T15:28:08.038Z,94633.72
2023-02-27T15:30:34.594Z,94635.09
2023-02-27T15:33:02.853Z,94634.31
2023-02-27T15:35:37.684Z,94630.06
2023-02-27T15:38:04.594Z,94633.06
2023-02-27T15:40:33.174Z,94635.94
2023-02-27T15:43:01.178Z,94627.41
2023-02-27T15:45:31.993Z,94643.03
2023-02-27T15:47:58.648Z,94644.91
2023-02-27T15:50:33.274Z,94641.31
2023-02-27T15:53:18.443Z,94646.34
2023-02-27T15:55:51.345Z,94649.69
2023-02-27T15:58:46.724Z,94658.72
2023-02-27T16:01:19.114Z,94652.88
2023-02-27T16:03:48.699Z,94663.91
2023-02-27T16:06:21.687Z,94667.56
2023-02-27T16:08:54.263Z,94661.03
2023-02-27T16:11:25.754Z,94671.50
2023-02-27T16:13:52.770Z,94670.59
2023-02-27T16:16:28.793Z,94674.94
2023-02-27T16:18:58.524Z,94674.94
2023-02-27T16:21:31.013Z,94685.19
2023-02-27T16:24:18.083Z,94687.19
2023-02-27T16:26:51.237Z,94690.59
2023-02-27T16:29:27.834Z,94692.00
2023-02-27T16:31:58.265Z,94682.63
2023-02-27T16:34:46.105Z,94685.75
2023-02-27T16:37:29.160Z,94694.00
2023-02-27T16:39:55.618Z,94706.25
2023-02-27T16:42:22.495Z,94699.97
2023-02-27T16:44:49.062Z,94706.31
2023-02-27T16:47:15.515Z,94712.88
2023-02-27T16:49:44.280Z,94719.19
2023-02-27T16:52:12.060Z,94719.63
2023-02-27T16:54:38.643Z,94716.03
2023-02-27T16:57:05.132Z,94702.94
2023-02-27T16:59:39.717Z,94721.16
2023-02-27T17:02:11.075Z,94723.44
2023-02-27T17:04:37.500Z,94727.56
2023-02-27T17:07:06.529Z,94726.81
2023-02-27T17:09:33.525Z,94736.09
2023-02-27T17:11:59.943Z,94740.69
2023-02-27T17:14:26.430Z,94743.44
2023-02-27T17:16:53.006Z,94738.13
2023-02-27T17:19:21.366Z,94738.31
2023-02-27T17:21:48.305Z,94745.44
2023-02-27T17:24:14.738Z,94741.75
2023-02-27T17:26:41.176Z,94740.81
2023-02-27T17:29:09.535Z,94753.22
2023-02-27T17:31:37.041Z,94752.44
2023-02-27T17:34:05.089Z,94746.38
2023-02-27T17:36:31.592Z,94759.72
2023-02-27T17:39:01.636Z,94764.50
2023-02-27T17:41:30.141Z,94758.03
2023-02-27T17:43:58.328Z,94756.88
2023-02-27T17:46:27.001Z,94760.84
2023-02-27T17:48:56.093Z,94770.28
2023-02-27T17:51:22.935Z,94759.28
2023-02-27T17:53:49.329Z,94765.59
2023-02-27T17:56:15.785Z,94772.69
2023-02-27T17:58:45.325Z,94765.25
2023-02-27T18:01:15.133Z,94779.34
2023-02-27T18:03:41.762Z,94784.69
2023-02-27T18:06:08.732Z,94777.41
2023-02-27T18:08:35.185Z,94784.53
2023-02-27T18:11:02.079Z,94785.13
2023-02-27T18:13:28.654Z,94783.16
2023-02-27T18:15:56.522Z,94790.63
2023-02-27T18:18:23.656Z,94792.78
2023-02-27T18:21:00.675Z,94784.94
2023-02-27T18:23:27.257Z,94801.06
2023-02-27T18:25:55.648Z,94796.72
2023-02-27T18:28:22.758Z,94788.69
2023-02-27T18:30:49.492Z,94799.09
2023-02-27T18:33:16.008Z,94797.50
2023-02-27T18:35:42.625Z,94790.63
2023-02-27T18:38:09.076Z,94797.88
2023-02-27T18:40:35.509Z,94800.03
2023-02-27T18:43:01.922Z,94791.56
2023-02-27T18:45:29.638Z,94788.03
2023-02-27T18:47:57.159Z,94794.13
2023-02-27T18:50:25.097Z,94787.44
2023-02-27T18:52:51.588Z,94790.22
2023-02-27T18:55:18.133Z,94792.38
2023-02-27T18:57:45.061Z,94803.25
2023-02-27T19:00:12.774Z,94803.81
2023-02-27T19:02:41.589Z,94799.09
2023-02-27T19:05:11.026Z,94803.81
2023-02-27T19:07:38.606Z,94799.50
2023-02-27T19:10:07.371Z,94791.06
2023-02-27T19:12:33.897Z,94789.88
2023-02-27T19:15:00.351Z,94797.72
2023-02-27T19:17:27.279Z,94798.69
2023-02-27T19:19:53.810Z,94792.78
2023-02-27T19:22:20.428Z,94794.00
2023-02-27T19:24:47.100Z,94780.63
2023-02-27T19:27:13.822Z,94799.16
2023-02-27T19:29:40.218Z,94792.88
2023-02-27T19:32:08.250Z,94793.66
2023-02-27T19:34:34.710Z,94797.59
2023-02-27T19:37:01.180Z,94795.25
2023-02-27T19:39:27.648Z,94804.28
2023-02-27T19:41:54.113Z,94800.13
2023-02-27T19:44:20.640Z,94797.97
2023-02-27T19:46:51.297Z,94796.59
2023-02-27T19:49:18.032Z,94786.97
2023-02-27T19:51:44.643Z,94796.06
2023-02-27T19:54:15.511Z,94794.28
2023-02-27T19:56:42.660Z,94794.28
2023-02-27T19:59:11.801Z,94789.34
2023-02-27T20:01:39.545Z,94793.69
2023-02-27T20:04:07.017Z,94781.53
2023-02-27T20:06:43.848Z,94785.22
2023-02-27T20:09:15.908Z,94796.47
2023-02-27T20:11:47.215Z,94785.03
2023-02-27T20:14:15.598Z,94790.16
2023-02-27T20:16:42.225Z,94786.63
2023-02-27T20:19:12.782Z,94781.53
2023-02-27T20:21:39.379Z,94790.34
2023-02-27T20:24:06.064Z,94789.34
2023-02-27T20:26:36.166Z,94777.56
2023-02-27T20:29:06.435Z,94786.81
2023-02-27T20:31:36.151Z,94779.53
2023-02-27T20:34:05.858Z,94776.19
2023-02-27T20:36:34.522Z,94775.84
2023-02-27T20:39:01.178Z,94783.75
2023-02-27T20:41:29.764Z,94774.09
2023-02-27T20:43:57.254Z,94771.38
2023-02-27T20:46:27.823Z,94776.88
2023-02-27T20:49:00.356Z,94773.16
2023-02-27T20:51:30.870Z,94761.59
2023-02-27T20:53:59.756Z,94770.41
2023-02-27T20:56:34.492Z,94769.28
2023-02-27T20:59:06.121Z,94774.19
2023-02-27T21:01:33.248Z,94754.56
2023-02-27T21:03:59.947Z,94773.03
2023-02-27T21:06:26.870Z,94767.94
2023-02-27T21:08:56.285Z,94767.34
2023-02-27T21:11:27.108Z,94767.53
2023-02-27T21:13:55.090Z,94770.31
2023-02-27T21:16:21.728Z,94761.63
2023-02-27T21:18:51.981Z,94759.91
2023-02-27T21:21:23.002Z,94776.00
2023-02-27T21:23:49.760Z,94766.00
2023-02-27T21:26:33.240Z,94767.75
2023-02-27T21:29:07.990Z,94770.13
2023-02-27T21:31:36.320Z,94768.72
2023-02-27T21:34:06.767Z,94766.75
2023-02-27T21:36:36.741Z,94770.31
2023-02-27T21:39:07.535Z,94764.78
2023-02-27T21:41:35.339Z,94760.88
2023-02-27T21:44:05.239Z,94756.34
2023-02-27T21:46:32.329Z,94759.69
2023-02-27T21:48:59.101Z,94755.94
2023-02-27T21:51:38.750Z,94750.84
2023-02-27T21:54:07.393Z,94736.31
2023-02-27T21:56:33.863Z,94750.66
2023-02-27T21:59:01.806Z,94746.53
2023-02-27T22:01:29.561Z,94745.97
2023-02-27T22:03:57.144Z,94742.84
2023-02-27T22:06:25.072Z,94749.72
2023-02-27T22:08:56.003Z,94735.19
2023-02-27T22:11:24.402Z,94739.88
2023-02-27T22:13:50.909Z,94740.69
2023-02-27T22:16:18.062Z,94730.28
2023-02-27T22:18:44.954Z,94740.09
2023-02-27T22:21:17.912Z,94740.09
2023-02-27T22:23:45.806Z,94737.72
2023-02-27T22:26:15.238Z,94726.53
2023-02-27T22:28:41.932Z,94733.03
2023-02-27T22:31:12.419Z,94729.91
2023-02-27T22:33:40.430Z,94734.59
2023-02-27T22:36:07.994Z,94728.53
2023-02-27T22:38:34.793Z,94731.84
2023-02-27T22:41:09.747Z,94722.63
2023-02-27T22:43:38.231Z,94723.59
2023-02-27T22:46:04.979Z,94730.47
2023-02-27T22:48:31.589Z,94721.25
2023-02-27T22:51:03.409Z,94724.97
2023-02-27T22:53:32.936Z,94727.91
2023-02-27T22:55:59.649Z,94720.66
2023-02-27T22:58:26.925Z,94724.78
2023-02-27T23:00:53.577Z,94723.81
2023-02-27T23:03:20.074Z,94719.28
2023-02-27T23:05:48.140Z,94712.97
2023-02-27T23:08:15.133Z,94718.09
2023-02-27T23:10:42.649Z,94716.50
2023-02-27T23:13:09.496Z,94709.06
2023-02-27T23:15:37.735Z,94720.06
2023-02-27T23:18:05.325Z,94723.81
2023-02-27T23:20:31.747Z,94713.38
2023-02-27T23:22:58.151Z,94712.19
2023-02-27T23:25:25.322Z,94713.38
2023-02-27T23:27:51.718Z,94702.00
2023-02-27T23:30:18.264Z,94706.34
2023-02-27T23:32:45.140Z,94709.69
2023-02-27T23:35:25.228Z,94700.84
2023-02-27T23:37:53.144Z,94707.69
2023-02-27T23:40:21.025Z,94703.97
2023-02-27T23:42:47.484Z,94699.88
2023-02-27T23:45:23.029Z,94697.31
2023-02-27T23:47:54.585Z,94689.03
2023-02-27T23:50:23.894Z,94696.72
2023-02-27T23:52:52.281Z,94689.03
2023-02-27T23:55:21.123Z,94691.03
2023-02-27T23:57:51.731Z,94686.72
